createdAt,value
2017-02-04T00:00:32.571Z,95.98
2017-02-04T00:01:12.962Z,95.7
2017-02-04T00:01:53.377Z,95.79
2017-02-04T00:02:33.793Z,96.17
2017-02-04T00:03:14.252Z,95.98
2017-02-04T00:03:54.629Z,96.26
2017-02-04T00:04:35.055Z,96.17
2017-02-04T00:05:15.484Z,95.6
2017-02-04T00:05:55.895Z,95.79
2017-02-04T00:06:36.293Z,95.89
2017-02-04T00:07:16.742Z,95.51
2017-02-04T00:07:57.163Z,95.6
2017-02-04T00:08:37.551Z,95.12
2017-02-04T00:09:17.961Z,95.55
2017-02-04T00:09:58.388Z,95.36
2017-02-04T00:10:38.826Z,95.46
2017-02-04T00:11:19.210Z,95.46
2017-02-04T00:11:59.613Z,95.46
2017-02-04T00:12:39.990Z,95.55
2017-02-04T00:13:20.408Z,94.98
2017-02-04T00:14:00.842Z,95.08
2017-02-04T00:14:41.254Z,95.17
2017-02-04T00:15:21.659Z,94.98
2017-02-04T00:16:02.093Z,94.32
2017-02-04T00:16:42.493Z,93.84
2017-02-04T00:17:22.875Z,94.89
2017-02-04T00:18:03.312Z,94.7
2017-02-04T00:18:43.702Z,94.79
2017-02-04T00:19:24.098Z,94.98
2017-02-04T00:20:04.513Z,94.98
2017-02-04T00:20:44.975Z,94.23
2017-02-04T00:21:25.338Z,94.51
2017-02-04T00:22:05.758Z,94.42
2017-02-04T00:22:46.194Z,94.42
2017-02-04T00:23:26.596Z,94.32
2017-02-04T00:24:07.004Z,94.32
2017-02-04T00:24:47.404Z,94.42
2017-02-04T00:25:27.818Z,94.23
2017-02-04T00:26:08.224Z,95.17
2017-02-04T00:26:48.623Z,94.32
2017-02-04T00:27:29.025Z,94.13
2017-02-04T00:28:09.421Z,94.51
2017-02-04T00:28:49.808Z,94.51
2017-02-04T00:29:30.214Z,94.51
2017-02-04T00:30:10.601Z,94.7
2017-02-04T00:30:51.011Z,94.32
2017-02-04T00:31:31.397Z,94.42
2017-02-04T00:32:11.800Z,94.03
2017-02-04T00:32:52.196Z,93.75
2017-02-04T00:33:32.581Z,93.94
2017-02-04T00:34:12.997Z,93.75
2017-02-04T00:34:53.384Z,93.65
2017-02-04T00:35:33.816Z,94.13
2017-02-04T00:36:14.195Z,93.84
2017-02-04T00:36:54.649Z,93.46
2017-02-04T00:37:35.054Z,93.94
2017-02-04T00:38:15.494Z,93.37
2017-02-04T00:38:55.888Z,93.37
2017-02-04T00:39:36.287Z,93.56
2017-02-04T00:40:16.688Z,93.56
2017-02-04T00:40:57.063Z,92.8
2017-02-04T00:41:37.460Z,93.08
2017-02-04T00:42:17.849Z,93.37
2017-02-04T00:42:58.254Z,93.37
2017-02-04T00:43:38.653Z,93.37
2017-02-04T00:44:19.086Z,93.08
2017-02-04T00:44:59.505Z,93.08
2017-02-04T00:45:39.929Z,93.18
2017-02-04T00:46:20.320Z,93.46
2017-02-04T00:47:00.740Z,93.46
2017-02-04T00:47:41.151Z,93.56
2017-02-04T00:48:21.587Z,93.27
2017-02-04T00:49:01.968Z,93.23
2017-02-04T00:49:42.408Z,93.18
2017-02-04T00:50:22.800Z,93.23
2017-02-04T00:51:03.272Z,93.23
2017-02-04T00:51:43.723Z,93.41
2017-02-04T00:52:24.116Z,93.32
2017-02-04T00:53:04.511Z,93.37
2017-02-04T00:53:44.970Z,92.85
2017-02-04T00:54:25.353Z,93.32
2017-02-04T00:55:05.768Z,93.04
2017-02-04T00:55:46.257Z,93.04
2017-02-04T00:56:26.618Z,92.94
2017-02-04T00:57:07.050Z,92.66
2017-02-04T00:57:47.431Z,93.04
2017-02-04T00:58:27.856Z,92.94
2017-02-04T00:59:08.296Z,93.23
2017-02-04T01:01:21.251Z,93.32
2017-02-04T01:02:01.602Z,93.04
2017-02-04T01:02:42.005Z,93.51
2017-02-04T01:03:22.438Z,93.04
2017-02-04T01:04:02.833Z,92.75
2017-02-04T01:04:43.225Z,92.94
2017-02-04T01:05:23.625Z,93.23
2017-02-04T01:06:04.048Z,93.13
2017-02-04T01:06:44.482Z,93.04
2017-02-04T01:07:24.877Z,93.23
2017-02-04T01:08:05.278Z,92.85
2017-02-04T01:08:45.746Z,93.23
2017-02-04T01:09:26.123Z,93.13
2017-02-04T01:10:06.524Z,92.85
2017-02-04T01:10:46.906Z,92.85
2017-02-04T01:11:27.322Z,93.04
2017-02-04T01:12:07.708Z,93.13
2017-02-04T01:12:48.104Z,92.85
2017-02-04T01:13:28.534Z,93.23
2017-02-04T01:14:08.962Z,93.13
2017-02-04T01:14:49.346Z,93.04
2017-02-04T01:15:29.759Z,92.56
2017-02-04T01:16:10.183Z,92.56
2017-02-04T01:16:50.604Z,93.41
2017-02-04T01:17:31.021Z,93.04
2017-02-04T01:18:11.454Z,92.47
2017-02-04T01:18:51.842Z,92.66
2017-02-04T01:19:32.268Z,92.37
2017-02-04T01:20:12.668Z,92.85
2017-02-04T01:20:53.071Z,92.47
2017-02-04T01:22:50.790Z,92.37
2017-02-04T01:23:31.220Z,92.47
2017-02-04T01:24:11.621Z,92.28
2017-02-04T01:24:52.031Z,92.28
2017-02-04T01:25:32.439Z,92.28
2017-02-04T01:26:12.872Z,92.66
2017-02-04T01:26:53.231Z,92.23
2017-02-04T01:28:40.992Z,92.51
2017-02-04T01:29:21.374Z,92.8
2017-02-04T01:30:01.808Z,92.32
2017-02-04T01:30:42.244Z,92.13
2017-02-04T01:31:22.723Z,92.04
2017-02-04T01:32:03.123Z,91.94
2017-02-04T01:32:43.527Z,91.85
2017-02-04T01:33:23.964Z,91.66
2017-02-04T01:34:04.397Z,91.85
2017-02-04T01:34:44.834Z,91.75
2017-02-04T01:35:25.262Z,91.75
2017-02-04T01:36:05.701Z,91.85
2017-02-04T01:36:46.091Z,91.38
2017-02-04T01:38:59.098Z,91.56
2017-02-04T01:39:39.484Z,91.09
2017-02-04T01:40:19.919Z,91.28
2017-02-04T01:41:00.318Z,91.19
2017-02-04T01:41:40.738Z,90.99
2017-02-04T01:42:21.142Z,90.8
2017-02-04T01:43:01.553Z,90.8
2017-02-04T01:43:41.967Z,90.8
2017-02-04T01:45:39.680Z,90.99
2017-02-04T01:46:20.110Z,90.42
2017-02-04T01:47:00.531Z,90.42
2017-02-04T01:47:40.926Z,90.14
2017-02-04T01:48:21.351Z,90.23
2017-02-04T01:49:01.778Z,90.23
2017-02-04T01:49:42.169Z,90.37
2017-02-04T01:50:22.606Z,90.52
2017-02-04T01:51:03.036Z,90.52
2017-02-04T01:51:43.463Z,90.42
2017-02-04T01:52:23.882Z,90.42
2017-02-04T01:53:04.269Z,90.09
2017-02-04T01:53:44.684Z,89.71
2017-02-04T01:54:25.083Z,90.14
2017-02-04T01:55:05.543Z,89.86
2017-02-04T01:55:45.958Z,89.86
2017-02-04T01:56:26.344Z,89.86
2017-02-04T01:57:06.759Z,89.52
2017-02-04T01:57:47.177Z,89.47
2017-02-04T01:58:27.564Z,89.67
2017-02-04T01:59:07.997Z,89.86
2017-02-04T01:59:48.405Z,89.28
2017-02-04T02:00:28.830Z,89.19
2017-02-04T02:01:09.207Z,89.28
2017-02-04T02:01:49.653Z,89.47
2017-02-04T02:02:30.098Z,88.9
2017-02-04T02:03:10.488Z,89.09
2017-02-04T02:03:50.890Z,89.47
2017-02-04T02:04:31.299Z,89.19
2017-02-04T02:05:11.728Z,89.19
2017-02-04T02:05:52.139Z,89.19
2017-02-04T02:06:32.569Z,89.09
2017-02-04T02:07:12.971Z,89.28
2017-02-04T02:07:53.372Z,89.09
2017-02-04T02:08:33.779Z,88.9
2017-02-04T02:09:14.189Z,89.09
2017-02-04T02:09:54.617Z,89.19
2017-02-04T02:10:35.005Z,89.09
2017-02-04T02:11:15.396Z,89.19
2017-02-04T02:11:55.796Z,89.47
2017-02-04T02:12:36.229Z,89.76
2017-02-04T02:13:16.621Z,89.67
2017-02-04T02:13:57.042Z,89.67
2017-02-04T02:14:37.450Z,89.57
2017-02-04T02:15:17.888Z,89.67
2017-02-04T02:15:58.288Z,89.95
2017-02-04T02:17:56.266Z,89.86
2017-02-04T02:18:36.668Z,89.67
2017-02-04T02:19:17.089Z,89.76
2017-02-04T02:19:57.532Z,89.86
2017-02-04T02:20:37.930Z,89.47
2017-02-04T02:21:18.371Z,89.57
2017-02-04T02:21:58.775Z,89.19
2017-02-04T02:22:39.171Z,89.38
2017-02-04T02:23:19.582Z,89.09
2017-02-04T02:24:00.020Z,89.47
2017-02-04T02:24:40.412Z,89.09
2017-02-04T02:25:20.849Z,88.71
2017-02-04T02:26:01.295Z,88.81
2017-02-04T02:26:41.694Z,88.15
2017-02-04T02:27:22.116Z,88.24
2017-02-04T02:28:03.457Z,88.34
2017-02-04T02:28:43.868Z,88.43
2017-02-04T02:29:24.294Z,88.71
2017-02-04T02:30:04.726Z,88.05
2017-02-04T02:30:45.148Z,88.34
2017-02-04T02:31:25.565Z,87.91
2017-02-04T02:32:05.988Z,88.57
2017-02-04T02:32:46.422Z,88.29
2017-02-04T02:33:26.869Z,88.39
2017-02-04T02:34:07.307Z,88.39
2017-02-04T02:34:47.726Z,88.29
2017-02-04T02:35:28.155Z,89.14
2017-02-04T02:36:08.598Z,89.43
2017-02-04T02:36:49.016Z,89.43
2017-02-04T02:37:29.455Z,89.24
2017-02-04T02:38:09.877Z,89.24
2017-02-04T02:38:50.349Z,89.43
2017-02-04T02:39:30.756Z,89.14
2017-02-04T02:40:11.162Z,89.14
2017-02-04T02:40:51.573Z,89.14
2017-02-04T02:41:31.988Z,89.14
2017-02-04T02:42:12.422Z,88.95
2017-02-04T02:42:52.835Z,89.33
2017-02-04T02:43:33.244Z,89.43
2017-02-04T02:44:13.710Z,89.24
2017-02-04T02:44:54.100Z,89.43
2017-02-04T02:45:34.529Z,88.76
2017-02-04T02:46:14.952Z,89
2017-02-04T02:46:55.372Z,89.29
2017-02-04T02:47:35.797Z,89.29
2017-02-04T02:48:16.218Z,89.58
2017-02-04T02:48:56.631Z,89.67
2017-02-04T02:49:37.058Z,89.76
2017-02-04T02:50:17.504Z,89.76
2017-02-04T02:50:57.906Z,89.58
2017-02-04T02:51:38.325Z,89.86
2017-02-04T02:52:18.752Z,89.48
2017-02-04T02:52:59.183Z,89.86
2017-02-04T02:53:39.599Z,90.05
2017-02-04T02:54:20.011Z,90.14
2017-02-04T02:55:00.427Z,90.43
2017-02-04T02:56:53.148Z,90.14
2017-02-04T02:57:33.543Z,90.33
2017-02-04T02:59:31.347Z,90.33
2017-02-04T03:00:11.759Z,90.24
2017-02-04T03:00:52.162Z,90.24
2017-02-04T03:01:32.594Z,90.24
2017-02-04T03:02:13.007Z,90
2017-02-04T03:02:53.443Z,90.19
2017-02-04T03:03:33.868Z,90.1
2017-02-04T03:04:14.300Z,90.19
2017-02-04T03:04:54.747Z,90.48
2017-02-04T03:05:35.124Z,90.48
2017-02-04T03:06:15.533Z,90.38
2017-02-04T03:06:55.926Z,90.76
2017-02-04T03:07:36.326Z,90.57
2017-02-04T03:08:16.767Z,90.76
2017-02-04T03:08:57.209Z,90.48
2017-02-04T03:09:37.611Z,90.86
2017-02-04T03:10:18.027Z,91.05
2017-02-04T03:10:58.446Z,90.95
2017-02-04T03:11:38.877Z,91.05
2017-02-04T03:12:19.324Z,90.76
2017-02-04T03:12:59.768Z,90.76
2017-02-04T03:13:40.167Z,90.57
2017-02-04T03:14:20.611Z,90.86
2017-02-04T03:15:01.037Z,90.76
2017-02-04T03:15:41.468Z,90.67
2017-02-04T03:16:21.863Z,91.42
2017-02-04T03:17:02.282Z,91.24
2017-02-04T03:17:42.756Z,90.86
2017-02-04T03:18:23.154Z,90.95
2017-02-04T03:19:03.569Z,91.14
2017-02-04T03:19:43.987Z,91.61
2017-02-04T03:21:36.605Z,91.24
2017-02-04T03:22:17.015Z,91.33
2017-02-04T03:22:57.462Z,91.61
2017-02-04T03:23:37.852Z,91.52
2017-02-04T03:24:18.249Z,91.14
2017-02-04T03:24:58.664Z,91.14
2017-02-04T03:25:39.066Z,91.14
2017-02-04T03:26:19.471Z,91.05
2017-02-04T03:26:59.910Z,91.05
2017-02-04T03:27:40.321Z,91.52
2017-02-04T03:28:20.717Z,90.43
2017-02-04T03:29:01.134Z,90.81
2017-02-04T03:29:41.546Z,90.81
2017-02-04T03:30:21.932Z,90.81
2017-02-04T03:31:02.397Z,91
2017-02-04T03:31:42.803Z,91.05
2017-02-04T03:32:23.231Z,91.09
2017-02-04T03:33:03.636Z,90.9
2017-02-04T03:33:44.079Z,91.09
2017-02-04T03:34:24.504Z,90.52
2017-02-04T03:35:04.923Z,90.52
2017-02-04T03:35:45.339Z,91.09
2017-02-04T03:36:25.730Z,90.62
2017-02-04T03:38:38.959Z,90.9
2017-02-04T03:39:19.375Z,90.71
2017-02-04T03:39:59.811Z,90.71
2017-02-04T03:40:40.237Z,90.81
2017-02-04T03:41:20.688Z,90.76
2017-02-04T03:42:01.069Z,91.05
2017-02-04T03:42:41.488Z,90.81
2017-02-04T03:43:21.919Z,90.76
2017-02-04T03:44:02.323Z,90.81
2017-02-04T03:44:42.762Z,90.9
2017-02-04T03:45:23.177Z,90.71
2017-02-04T03:46:03.571Z,90.81
2017-02-04T03:46:44.001Z,90.86
2017-02-04T03:47:24.413Z,90.81
2017-02-04T03:48:04.802Z,90.95
2017-02-04T03:48:45.192Z,90.86
2017-02-04T03:49:25.606Z,90.76
2017-02-04T03:50:05.976Z,90.67
2017-02-04T03:50:46.391Z,90.76
2017-02-04T03:51:26.810Z,90.67
2017-02-04T03:52:07.211Z,90.57
2017-02-04T03:52:47.606Z,90.76
2017-02-04T03:53:28.046Z,90.86
2017-02-04T03:54:08.433Z,90.95
2017-02-04T03:54:48.840Z,90.76
2017-02-04T03:55:29.222Z,90.57
2017-02-04T03:56:09.625Z,90.76
2017-02-04T03:56:50.067Z,90.86
2017-02-04T03:57:30.428Z,90.76
2017-02-04T03:58:10.855Z,90.76
2017-02-04T03:58:51.237Z,90.48
2017-02-04T03:59:31.655Z,90.48
2017-02-04T04:00:12.055Z,90.95
2017-02-04T04:00:52.517Z,90.86
2017-02-04T04:01:32.937Z,90.67
2017-02-04T04:02:13.358Z,91.33
2017-02-04T04:02:53.739Z,90.86
2017-02-04T04:03:34.145Z,91.33
2017-02-04T04:04:14.558Z,91.33
2017-02-04T04:04:54.954Z,91.24
2017-02-04T04:05:35.356Z,91.33
2017-02-04T04:06:15.793Z,91.24
2017-02-04T04:06:56.218Z,91.33
2017-02-04T04:07:36.586Z,91.42
2017-02-04T04:08:16.981Z,90.67
2017-02-04T04:08:57.420Z,90.48
2017-02-04T04:09:37.832Z,90.38
2017-02-04T04:10:18.239Z,90.67
2017-02-04T04:10:58.642Z,90.67
2017-02-04T04:11:39.022Z,90.38
2017-02-04T04:12:19.419Z,90.38
2017-02-04T04:12:59.848Z,91.42
2017-02-04T04:13:40.268Z,91.42
2017-02-04T04:14:20.665Z,91.05
2017-02-04T04:15:01.095Z,91.24
2017-02-04T04:15:41.516Z,91.05
2017-02-04T04:16:21.906Z,90.86
2017-02-04T04:17:02.304Z,90.57
2017-02-04T04:17:42.745Z,90.86
2017-02-04T04:18:24.110Z,91.24
2017-02-04T04:19:04.522Z,91.05
2017-02-04T04:19:44.909Z,91.14
2017-02-04T04:20:25.314Z,91.24
2017-02-04T04:21:07.206Z,91.05
2017-02-04T05:34:18.305Z,92.38
2017-02-04T05:36:32.298Z,92.09
2017-02-04T05:37:12.632Z,92.47
2017-02-04T05:37:53.040Z,92
2017-02-04T05:38:33.481Z,91.9
2017-02-04T05:39:13.902Z,92.38
2017-02-04T05:39:54.341Z,92.28
2017-02-04T05:40:34.757Z,92.19
2017-02-04T05:41:15.140Z,92.28
2017-02-04T05:41:55.580Z,92.19
2017-02-04T05:42:35.958Z,92.09
2017-02-04T05:43:16.356Z,92.28
2017-02-04T05:43:56.775Z,91.81
2017-02-04T05:44:37.167Z,92.09
2017-02-04T05:45:17.587Z,92.28
2017-02-04T05:45:58.019Z,92.09
2017-02-04T05:46:38.438Z,92.28
2017-02-04T05:47:18.905Z,92
2017-02-04T05:47:59.260Z,92.09
2017-02-04T05:48:39.708Z,92
2017-02-04T05:49:20.071Z,92.38
2017-02-04T05:50:00.471Z,92.19
2017-02-04T05:50:40.921Z,92.09
2017-02-04T05:51:21.334Z,92.19
2017-02-04T05:52:01.720Z,92
2017-02-04T05:52:42.185Z,92
2017-02-04T05:53:22.571Z,92.57
2017-02-04T05:54:03.006Z,92.19
2017-02-04T05:54:43.472Z,92.28
2017-02-04T05:55:23.839Z,92.28
2017-02-04T05:56:04.292Z,92
2017-02-04T05:56:44.723Z,92.28
2017-02-04T05:57:25.196Z,92.09
2017-02-04T05:58:07.168Z,92.19
2017-02-04T05:58:48.467Z,91.9
2017-02-04T05:59:29.819Z,91.9
2017-02-04T06:00:11.160Z,92.09
2017-02-04T06:00:54.218Z,92.28
2017-02-04T06:03:12.140Z,92.09
2017-02-04T06:03:53.362Z,92.47
2017-02-04T06:04:33.768Z,92.66
2017-02-04T06:05:15.093Z,93.04
2017-02-04T06:05:56.260Z,92.38
2017-02-04T06:06:36.756Z,91.81
2017-02-04T06:07:17.106Z,92.66
2017-02-04T06:07:57.510Z,92.19
2017-02-04T06:08:37.972Z,92.09
2017-02-04T06:09:18.422Z,92.28
2017-02-04T06:09:58.829Z,92.28
2017-02-04T06:10:39.241Z,92
2017-02-04T06:11:19.677Z,92.28
2017-02-04T06:12:00.115Z,92
2017-02-04T06:12:40.546Z,92.19
2017-02-04T06:13:20.955Z,92
2017-02-04T06:14:01.380Z,92.38
2017-02-04T06:14:41.821Z,92
2017-02-04T06:16:54.817Z,91.71
2017-02-04T06:17:35.205Z,91.81
2017-02-04T06:18:15.638Z,92
2017-02-04T06:18:56.073Z,92.09
2017-02-04T06:19:36.514Z,92.19
2017-02-04T06:20:17.001Z,91.9
2017-02-04T06:20:57.408Z,91.81
2017-02-04T06:21:37.826Z,92
2017-02-04T06:23:25.589Z,91.71
2017-02-04T06:24:05.984Z,91.9
2017-02-04T06:24:46.409Z,92.09
2017-02-04T06:25:26.834Z,91.71
2017-02-04T06:26:07.242Z,92.19
2017-02-04T06:26:47.653Z,91.9
2017-02-04T06:27:28.069Z,91.81
2017-02-04T06:28:08.492Z,92.09
2017-02-04T06:28:48.910Z,92.19
2017-02-04T06:29:29.326Z,92.09
2017-02-04T06:31:42.327Z,92.38
2017-02-04T06:32:22.727Z,92.47
2017-02-04T06:33:03.134Z,92.19
2017-02-04T06:33:43.563Z,92.09
2017-02-04T06:34:23.984Z,92.09
2017-02-04T06:35:04.413Z,92.38
2017-02-04T06:35:44.806Z,91.9
2017-02-04T06:36:25.226Z,92.28
2017-02-04T06:37:05.634Z,92.28
2017-02-04T06:37:46.027Z,92.28
2017-02-04T06:38:26.464Z,91.62
2017-02-04T06:39:06.873Z,92.09
2017-02-04T06:39:47.294Z,92.09
2017-02-04T06:40:27.709Z,92.47
2017-02-04T06:41:08.143Z,92.09
2017-02-04T06:41:48.566Z,92
2017-02-04T06:42:28.987Z,92.19
2017-02-04T06:43:09.394Z,92.66
2017-02-04T06:43:49.770Z,92.57
2017-02-04T06:44:30.165Z,92.38
2017-02-04T06:45:10.569Z,92.47
2017-02-04T06:45:50.962Z,92.38
2017-02-04T06:46:31.367Z,92.47
2017-02-04T06:47:11.778Z,92.19
2017-02-04T06:47:52.208Z,92.47
2017-02-04T06:48:32.616Z,92.19
2017-02-04T06:49:13.003Z,92.09
2017-02-04T06:49:53.440Z,92.28
2017-02-04T06:50:33.854Z,92.47
2017-02-04T06:51:14.282Z,92.23
2017-02-04T06:51:54.703Z,92.47
2017-02-04T06:52:35.150Z,92.28
2017-02-04T06:53:15.555Z,92.33
2017-02-04T06:53:55.988Z,92.33
2017-02-04T06:54:36.410Z,92.42
2017-02-04T06:55:16.820Z,92.23
2017-02-04T06:55:57.231Z,92.14
2017-02-04T06:56:37.688Z,92.04
2017-02-04T06:57:18.085Z,91.76
2017-02-04T06:57:58.528Z,91.76
2017-02-04T06:58:38.927Z,91.66
2017-02-04T06:59:19.336Z,91.66
2017-02-04T06:59:59.752Z,92.14
2017-02-04T07:00:40.150Z,91.85
2017-02-04T07:01:20.556Z,91.85
2017-02-04T07:03:18.357Z,91.95
2017-02-04T07:03:58.777Z,92.33
2017-02-04T07:04:39.200Z,91.47
2017-02-04T07:05:19.635Z,91.38
2017-02-04T07:06:00.043Z,91.57
2017-02-04T07:06:40.460Z,91.76
2017-02-04T07:07:20.870Z,91.57
2017-02-04T07:08:01.291Z,91.85
2017-02-04T07:09:54.038Z,91.28
2017-02-04T07:10:34.462Z,91.76
2017-02-04T07:11:14.878Z,91.66
2017-02-04T07:11:55.310Z,91.85
2017-02-04T07:12:35.701Z,91.85
2017-02-04T07:13:16.122Z,91.38
2017-02-04T07:13:56.519Z,91.85
2017-02-04T07:14:36.925Z,91.57
2017-02-04T07:15:17.336Z,91.28
2017-02-04T07:15:57.738Z,91.19
2017-02-04T07:16:38.155Z,91.47
2017-02-04T07:17:18.551Z,91
2017-02-04T07:17:58.940Z,91
2017-02-04T07:18:39.354Z,91.19
2017-02-04T07:19:19.762Z,91
2017-02-04T07:20:00.165Z,91.19
2017-02-04T07:20:40.577Z,91.09
2017-02-04T07:21:21.013Z,91.09
2017-02-04T07:22:01.369Z,91.57
2017-02-04T07:22:41.813Z,91
2017-02-04T07:23:22.218Z,91.09
2017-02-04T07:24:02.602Z,91.38
2017-02-04T07:24:43.010Z,91.09
2017-02-04T07:25:23.407Z,91.38
2017-02-04T07:26:03.779Z,91.28
2017-02-04T07:26:44.177Z,91.24
2017-02-04T07:27:24.570Z,91.05
2017-02-04T07:28:04.989Z,91.05
2017-02-04T07:28:45.380Z,91
2017-02-04T07:29:25.740Z,91.24
2017-02-04T07:30:06.154Z,91.33
2017-02-04T07:30:46.550Z,91.24
2017-02-04T07:31:26.946Z,91.24
2017-02-04T07:32:07.337Z,91.05
2017-02-04T07:32:47.776Z,91.33
2017-02-04T07:33:28.185Z,91.33
2017-02-04T07:34:08.576Z,91.24
2017-02-04T07:34:49.007Z,91.61
2017-02-04T07:35:29.407Z,91.42
2017-02-04T07:36:10.353Z,91.24
2017-02-04T07:36:50.762Z,91.24
2017-02-04T07:37:31.162Z,91.24
2017-02-04T07:38:11.542Z,91.05
2017-02-04T07:38:51.961Z,91.42
2017-02-04T07:39:32.389Z,90.67
2017-02-04T07:40:12.836Z,90.86
2017-02-04T07:40:53.219Z,90.76
2017-02-04T07:41:33.623Z,90.76
2017-02-04T07:42:14.017Z,90.57
2017-02-04T07:42:54.417Z,90.95
2017-02-04T07:43:34.827Z,91.05
2017-02-04T07:44:15.228Z,91.05
2017-02-04T07:44:55.621Z,90.62
2017-02-04T07:45:36.034Z,90.81
2017-02-04T07:46:16.417Z,91.09
2017-02-04T07:46:56.827Z,90.81
2017-02-04T07:47:37.241Z,90.33
2017-02-04T07:48:17.686Z,90.52
2017-02-04T07:48:58.227Z,90.43
2017-02-04T07:49:38.465Z,90.52
2017-02-04T07:50:19.103Z,90.52
2017-02-04T07:50:59.528Z,90.62
2017-02-04T07:51:39.960Z,90.24
2017-02-04T07:52:20.347Z,90.24
2017-02-04T07:53:00.785Z,90.24
2017-02-04T07:53:41.221Z,90.24
2017-02-04T07:54:21.607Z,90.24
2017-02-04T07:55:02.047Z,90.14
2017-02-04T07:55:42.469Z,90.33
2017-02-04T07:56:22.835Z,90.24
2017-02-04T07:57:03.265Z,90.33
2017-02-04T07:57:43.658Z,90.52
2017-02-04T07:58:24.062Z,89.81
2017-02-04T07:59:04.467Z,90
2017-02-04T08:00:57.130Z,89.62
2017-02-04T08:01:37.522Z,89.53
2017-02-04T08:02:17.943Z,89.81
2017-02-04T08:02:58.361Z,89.53
2017-02-04T08:03:38.761Z,89.62
2017-02-04T08:04:19.351Z,89.33
2017-02-04T08:05:00.050Z,89.43
2017-02-04T08:05:40.471Z,88.86
2017-02-04T08:06:20.859Z,89.43
2017-02-04T08:07:01.243Z,89.33
2017-02-04T08:07:41.656Z,89.05
2017-02-04T08:08:22.104Z,89.24
2017-02-04T08:09:02.524Z,88.95
2017-02-04T08:09:43.007Z,88.95
2017-02-04T08:10:23.382Z,88.71
2017-02-04T08:11:03.842Z,88.71
2017-02-04T08:11:44.198Z,88.43
2017-02-04T08:12:24.635Z,88.53
2017-02-04T08:13:05.005Z,88.43
2017-02-04T08:13:45.429Z,88.43
2017-02-04T08:14:25.838Z,88.43
2017-02-04T08:15:06.216Z,88.53
2017-02-04T08:15:46.693Z,88.34
2017-02-04T08:16:27.029Z,88.53
2017-02-04T08:17:07.417Z,88.53
2017-02-04T08:17:47.881Z,88.43
2017-02-04T08:18:28.253Z,88.53
2017-02-04T08:20:21.121Z,87.81
2017-02-04T08:21:01.507Z,87.86
2017-02-04T08:21:41.896Z,87.76
2017-02-04T08:22:22.295Z,87.95
2017-02-04T08:23:02.685Z,87.95
2017-02-04T08:23:43.120Z,87.9
2017-02-04T08:24:23.547Z,87.67
2017-02-04T08:25:03.987Z,87.57
2017-02-04T08:25:44.362Z,87.76
2017-02-04T08:26:24.786Z,87.9
2017-02-04T08:27:05.174Z,87.71
2017-02-04T08:27:45.589Z,88
2017-02-04T08:28:26.028Z,88
2017-02-04T08:29:06.479Z,87.43
2017-02-04T08:29:46.860Z,87.71
2017-02-04T08:30:27.350Z,87.34
2017-02-04T08:31:07.779Z,87.24
2017-02-04T08:31:48.181Z,87.43
2017-02-04T08:32:28.651Z,87.43
2017-02-04T08:33:09.088Z,87.43
2017-02-04T08:33:49.474Z,87.43
2017-02-04T08:34:29.929Z,87.62
2017-02-04T08:35:10.339Z,87.43
2017-02-04T08:35:50.909Z,87.43
2017-02-04T08:36:33.978Z,87.43
2017-02-04T08:37:14.400Z,87.34
2017-02-04T08:37:54.811Z,87.71
2017-02-04T08:38:35.241Z,87.62
2017-02-04T08:39:15.615Z,87.71
2017-02-04T08:39:56.046Z,87.71
2017-02-04T08:40:36.445Z,87.52
2017-02-04T08:41:16.861Z,87.43
2017-02-04T08:41:57.263Z,87.43
2017-02-04T08:42:37.676Z,87.34
2017-02-04T08:43:18.087Z,87.34
2017-02-04T08:43:58.525Z,87.43
2017-02-04T08:44:38.935Z,86.86
2017-02-04T08:45:19.334Z,86.76
2017-02-04T08:45:59.741Z,86.86
2017-02-04T08:46:40.125Z,86.38
2017-02-04T08:47:20.539Z,86.47
2017-02-04T08:48:00.976Z,86.57
2017-02-04T08:48:41.399Z,86.86
2017-02-04T08:49:21.819Z,86.29
2017-02-04T08:50:02.243Z,85.91
2017-02-04T08:50:42.635Z,86.43
2017-02-04T08:51:23.052Z,86.29
2017-02-04T08:52:03.465Z,86.9
2017-02-04T08:52:43.830Z,86.33
2017-02-04T08:53:24.256Z,85.76
2017-02-04T08:54:04.650Z,85.57
2017-02-04T08:54:45.103Z,85.95
2017-02-04T08:55:25.557Z,86.05
2017-02-04T08:56:05.948Z,86.05
2017-02-04T08:56:46.364Z,85.95
2017-02-04T08:57:26.744Z,85.86
2017-02-04T08:59:14.387Z,85.86
2017-02-04T08:59:54.737Z,85.86
2017-02-04T09:00:35.128Z,85.47
2017-02-04T09:01:15.537Z,85.28
2017-02-04T09:01:56.821Z,85.76
2017-02-04T09:02:37.249Z,85.28
2017-02-04T09:03:17.655Z,85.76
2017-02-04T09:03:58.142Z,85.28
2017-02-04T09:04:38.537Z,85
2017-02-04T09:05:18.972Z,84.91
2017-02-04T09:05:59.397Z,84.81
2017-02-04T09:06:39.785Z,84.62
2017-02-04T09:07:20.937Z,84.24
2017-02-04T09:09:43.097Z,84.47
2017-02-04T09:10:26.324Z,84.19
2017-02-04T09:11:06.735Z,84.19
2017-02-04T09:11:47.213Z,84.38
2017-02-04T09:12:27.566Z,84.28
2017-02-04T09:13:08.014Z,83.56
2017-02-04T09:13:48.398Z,83.65
2017-02-04T09:14:29.576Z,83.75
2017-02-04T09:15:10.071Z,83.47
2017-02-04T09:15:50.549Z,83.18
2017-02-04T09:16:30.899Z,83.28
2017-02-04T09:17:11.254Z,83.22
2017-02-04T09:17:51.693Z,82.27
2017-02-04T09:18:32.179Z,82.75
2017-02-04T09:19:13.028Z,81.98
2017-02-04T09:19:53.486Z,82.27
2017-02-04T09:21:51.190Z,82.03
2017-02-04T09:22:31.622Z,81.84
2017-02-04T09:23:12.095Z,81.46
2017-02-04T09:23:52.477Z,81.55
2017-02-04T09:24:32.901Z,81.26
2017-02-04T09:25:13.297Z,81.02
2017-02-04T09:25:53.696Z,80.64
2017-02-04T09:26:34.159Z,80.73
2017-02-04T09:27:14.560Z,80.44
2017-02-04T09:27:54.969Z,80.54
2017-02-04T09:28:35.402Z,80.35
2017-02-04T09:29:15.900Z,80.54
2017-02-04T09:29:56.345Z,80.26
2017-02-04T09:30:36.727Z,80.54
2017-02-04T09:31:17.173Z,79.59
2017-02-04T09:31:57.546Z,79.88
2017-02-04T09:32:37.943Z,79.88
2017-02-04T09:33:18.381Z,79.97
2017-02-04T09:33:58.800Z,79.78
2017-02-04T09:34:39.226Z,79.68
2017-02-04T09:35:19.639Z,79.88
2017-02-04T09:36:00.068Z,79.59
2017-02-04T09:36:40.480Z,79.68
2017-02-04T09:37:20.880Z,79.88
2017-02-04T09:38:01.292Z,79.68
2017-02-04T09:38:41.698Z,79.27
2017-02-04T09:39:22.160Z,79.07
2017-02-04T09:40:02.593Z,79.55
2017-02-04T09:40:43.016Z,79.55
2017-02-04T09:41:23.442Z,79.93
2017-02-04T09:42:03.895Z,79.64
2017-02-04T09:42:44.288Z,79.8
2017-02-04T09:43:24.693Z,79.7
2017-02-04T09:44:05.110Z,79.6
2017-02-04T09:44:45.519Z,79.8
2017-02-04T09:45:25.955Z,80.08
2017-02-04T09:46:06.409Z,80.08
2017-02-04T09:46:46.828Z,80.18
2017-02-04T09:47:27.244Z,80.27
2017-02-04T09:48:07.659Z,79.8
2017-02-04T09:48:48.077Z,80.52
2017-02-04T09:49:28.493Z,80.23
2017-02-04T09:50:08.911Z,80.9
2017-02-04T09:50:49.335Z,80.9
2017-02-04T09:51:29.777Z,80.61
2017-02-04T09:52:10.202Z,80.9
2017-02-04T09:52:50.617Z,80.61
2017-02-04T09:53:31.005Z,80.9
2017-02-04T09:54:11.485Z,80.61
2017-02-04T09:54:51.901Z,80.57
2017-02-04T09:55:32.345Z,81.05
2017-02-04T09:56:12.774Z,81.24
2017-02-04T09:56:53.202Z,81.05
2017-02-04T09:59:06.074Z,81.14
2017-02-04T09:59:46.502Z,81.24
2017-02-04T10:00:26.929Z,81.43
2017-02-04T10:01:07.379Z,81.52
2017-02-04T10:01:47.825Z,81.43
2017-02-04T10:02:28.247Z,81.43
2017-02-04T10:03:08.677Z,81.43
2017-02-04T10:03:49.107Z,81.43
2017-02-04T10:04:29.561Z,81.43
2017-02-04T10:05:10.020Z,81.43
2017-02-04T10:05:50.424Z,81.05
2017-02-04T10:06:30.830Z,81.52
2017-02-04T10:07:11.241Z,81.43
2017-02-04T10:07:51.643Z,81.14
2017-02-04T10:08:32.048Z,81.14
2017-02-04T10:10:19.848Z,80.66
2017-02-04T10:11:00.222Z,80.57
2017-02-04T10:11:40.645Z,80.86
2017-02-04T10:12:21.038Z,80.57
2017-02-04T10:13:01.481Z,80.86
2017-02-04T10:13:41.856Z,80.57
2017-02-04T10:14:22.325Z,80.47
2017-02-04T10:15:02.831Z,80.29
2017-02-04T10:15:43.327Z,80.13
2017-02-04T10:16:23.798Z,80.13
2017-02-04T10:17:04.269Z,80.52
2017-02-04T10:17:44.720Z,79.85
2017-02-04T10:18:25.088Z,79.57
2017-02-04T10:19:05.478Z,79.75
2017-02-04T10:19:45.934Z,79.66
2017-02-04T10:20:26.354Z,79.57
2017-02-04T10:22:14.011Z,79.81
2017-02-04T10:22:54.433Z,79.38
2017-02-04T10:23:34.880Z,79.14
2017-02-04T10:24:15.303Z,79.62
2017-02-04T10:24:55.724Z,79.19
2017-02-04T10:25:36.156Z,79.43
2017-02-04T10:26:16.584Z,79.05
2017-02-04T10:26:57.027Z,79.57
2017-02-04T10:27:37.466Z,79.47
2017-02-04T10:28:17.890Z,79.09
2017-02-04T10:28:58.339Z,79.24
2017-02-04T10:29:38.707Z,79.57